sensor_id;sensor_type;location;lat;lon;timestamp;pressure;altitude;pressure_sealevel;temperature;humidity
64967;BME280;51710;38.732;-121.358;2024-03-29T00:01:34;101136.19;;;16.63;48.33
64967;BME280;51710;38.732;-121.358;2024-03-29T00:04:01;101136.19;;;16.63;48.43
64967;BME280;51710;38.732;-121.358;2024-03-29T00:06:27;101138.22;;;16.61;47.84
64967;BME280;51710;38.732;-121.358;2024-03-29T00:08:53;101132.38;;;16.57;48.11
64967;BME280;51710;38.732;-121.358;2024-03-29T00:11:20;101124.31;;;16.57;48.09
64967;BME280;51710;38.732;-121.358;2024-03-29T00:13:46;101130.53;;;16.58;48.17
64967;BME280;51710;38.732;-121.358;2024-03-29T00:16:12;101127.84;;;16.58;48.10
64967;BME280;51710;38.732;-121.358;2024-03-29T00:18:38;101130.16;;;16.61;48.61
64967;BME280;51710;38.732;-121.358;2024-03-29T00:21:05;101129.50;;;16.59;48.47
64967;BME280;51710;38.732;-121.358;2024-03-29T00:23:31;101124.50;;;16.56;48.32
64967;BME280;51710;38.732;-121.358;2024-03-29T00:25:58;101125.63;;;16.47;48.63
64967;BME280;51710;38.732;-121.358;2024-03-29T00:28:24;101119.09;;;16.41;49.39
64967;BME280;51710;38.732;-121.358;2024-03-29T00:30:50;101124.09;;;16.30;50.57
64967;BME280;51710;38.732;-121.358;2024-03-29T00:33:17;101121.84;;;16.19;52.43
64967;BME280;51710;38.732;-121.358;2024-03-29T00:35:43;101122.28;;;16.08;54.33
64967;BME280;51710;38.732;-121.358;2024-03-29T00:38:09;101127.75;;;16.00;55.19
64967;BME280;51710;38.732;-121.358;2024-03-29T00:40:36;101127.84;;;15.92;55.94
64967;BME280;51710;38.732;-121.358;2024-03-29T00:43:02;101123.59;;;15.74;56.27
64967;BME280;51710;38.732;-121.358;2024-03-29T00:45:28;101119.69;;;15.62;57.26
64967;BME280;51710;38.732;-121.358;2024-03-29T00:47:55;101126.13;;;15.53;56.66
64967;BME280;51710;38.732;-121.358;2024-03-29T00:50:21;101131.38;;;15.47;56.62
64967;BME280;51710;38.732;-121.358;2024-03-29T00:52:47;101126.75;;;15.41;55.78
64967;BME280;51710;38.732;-121.358;2024-03-29T00:55:14;101130.28;;;15.33;55.89
64967;BME280;51710;38.732;-121.358;2024-03-29T00:57:40;101125.28;;;15.30;56.16
64967;BME280;51710;38.732;-121.358;2024-03-29T01:00:07;101127.66;;;15.25;56.14
64967;BME280;51710;38.732;-121.358;2024-03-29T01:02:38;101125.47;;;15.21;56.67
64967;BME280;51710;38.732;-121.358;2024-03-29T01:05:05;101127.69;;;15.17;56.93
64967;BME280;51710;38.732;-121.358;2024-03-29T01:07:31;101131.56;;;15.15;57.18
64967;BME280;51710;38.732;-121.358;2024-03-29T01:09:58;101125.38;;;15.14;57.50
64967;BME280;51710;38.732;-121.358;2024-03-29T01:12:24;101131.09;;;15.11;57.65
64967;BME280;51710;38.732;-121.358;2024-03-29T01:14:50;101134.75;;;15.10;57.55
64967;BME280;51710;38.732;-121.358;2024-03-29T01:17:16;101136.16;;;15.06;56.94
64967;BME280;51710;38.732;-121.358;2024-03-29T01:19:43;101125.09;;;15.01;57.07
64967;BME280;51710;38.732;-121.358;2024-03-29T01:22:10;101117.75;;;14.95;56.58
64967;BME280;51710;38.732;-121.358;2024-03-29T01:24:36;101126.31;;;14.91;56.48
64967;BME280;51710;38.732;-121.358;2024-03-29T01:27:02;101124.00;;;14.88;57.15
64967;BME280;51710;38.732;-121.358;2024-03-29T01:29:32;101121.84;;;14.83;57.18
64967;BME280;51710;38.732;-121.358;2024-03-29T01:31:58;101129.88;;;14.83;57.64
64967;BME280;51710;38.732;-121.358;2024-03-29T01:34:25;101131.91;;;14.81;57.93
64967;BME280;51710;38.732;-121.358;2024-03-29T01:36:51;101118.00;;;14.78;57.92
64967;BME280;51710;38.732;-121.358;2024-03-29T01:39:17;101123.91;;;14.73;58.68
64967;BME280;51710;38.732;-121.358;2024-03-29T01:41:46;101129.28;;;14.73;59.18
64967;BME280;51710;38.732;-121.358;2024-03-29T01:44:13;101130.25;;;14.72;59.17
64967;BME280;51710;38.732;-121.358;2024-03-29T01:46:39;101131.28;;;14.71;59.23
64967;BME280;51710;38.732;-121.358;2024-03-29T01:49:06;101125.25;;;14.69;59.74
64967;BME280;51710;38.732;-121.358;2024-03-29T01:51:36;101135.97;;;14.69;59.86
64967;BME280;51710;38.732;-121.358;2024-03-29T01:54:04;101140.31;;;14.70;60.21
64967;BME280;51710;38.732;-121.358;2024-03-29T01:56:30;101133.31;;;14.69;60.59
64967;BME280;51710;38.732;-121.358;2024-03-29T01:58:58;101129.59;;;14.70;60.22
64967;BME280;51710;38.732;-121.358;2024-03-29T02:01:26;101129.91;;;14.75;60.83
64967;BME280;51710;38.732;-121.358;2024-03-29T02:03:54;101127.22;;;14.75;61.13
64967;BME280;51710;38.732;-121.358;2024-03-29T02:06:22;101130.25;;;14.72;60.88
64967;BME280;51710;38.732;-121.358;2024-03-29T02:08:55;101133.13;;;14.71;60.60
64967;BME280;51710;38.732;-121.358;2024-03-29T02:11:21;101123.56;;;14.68;60.48
64967;BME280;51710;38.732;-121.358;2024-03-29T02:13:52;101128.44;;;14.64;60.56
64967;BME280;51710;38.732;-121.358;2024-03-29T02:16:19;101120.56;;;14.63;60.65
64967;BME280;51710;38.732;-121.358;2024-03-29T02:18:45;101121.41;;;14.63;60.79
64967;BME280;51710;38.732;-121.358;2024-03-29T02:21:12;101115.69;;;14.66;60.73
64967;BME280;51710;38.732;-121.358;2024-03-29T02:23:43;101111.53;;;14.64;60.46
64967;BME280;51710;38.732;-121.358;2024-03-29T02:26:10;101110.22;;;14.60;60.62
64967;BME280;51710;38.732;-121.358;2024-03-29T02:28:37;101108.69;;;14.57;60.78
64967;BME280;51710;38.732;-121.358;2024-03-29T02:31:04;101115.06;;;14.56;60.71
64967;BME280;51710;38.732;-121.358;2024-03-29T02:33:30;101100.16;;;14.54;61.26
64967;BME280;51710;38.732;-121.358;2024-03-29T02:35:56;101108.22;;;14.54;60.98
64967;BME280;51710;38.732;-121.358;2024-03-29T02:38:23;101105.88;;;14.51;61.23
64967;BME280;51710;38.732;-121.358;2024-03-29T02:40:49;101098.19;;;14.48;60.98
64967;BME280;51710;38.732;-121.358;2024-03-29T02:43:15;101096.53;;;14.47;61.22
64967;BME280;51710;38.732;-121.358;2024-03-29T02:45:42;101102.88;;;14.46;61.75
64967;BME280;51710;38.732;-121.358;2024-03-29T02:48:09;101101.22;;;14.45;61.75
64967;BME280;51710;38.732;-121.358;2024-03-29T02:50:35;101101.22;;;14.45;61.67
64967;BME280;51710;38.732;-121.358;2024-03-29T02:53:01;101100.03;;;14.47;62.05
64967;BME280;51710;38.732;-121.358;2024-03-29T02:55:27;101102.53;;;14.49;62.32
64967;BME280;51710;38.732;-121.358;2024-03-29T02:57:54;101099.22;;;14.47;61.98
64967;BME280;51710;38.732;-121.358;2024-03-29T03:00:20;101098.38;;;14.46;62.54
64967;BME280;51710;38.732;-121.358;2024-03-29T03:02:46;101093.84;;;14.47;62.08
64967;BME280;51710;38.732;-121.358;2024-03-29T03:05:12;101089.97;;;14.49;62.11
64967;BME280;51710;38.732;-121.358;2024-03-29T03:07:39;101086.44;;;14.49;62.37
64967;BME280;51710;38.732;-121.358;2024-03-29T03:10:24;101089.50;;;14.46;62.30
64967;BME280;51710;38.732;-121.358;2024-03-29T03:13:08;101084.97;;;14.46;62.59
64967;BME280;51710;38.732;-121.358;2024-03-29T03:15:34;101080.78;;;14.44;62.53
64967;BME280;51710;38.732;-121.358;2024-03-29T03:18:01;101087.53;;;14.40;62.59
64967;BME280;51710;38.732;-121.358;2024-03-29T03:20:27;101080.81;;;14.36;62.84
64967;BME280;51710;38.732;-121.358;2024-03-29T03:22:56;101082.34;;;14.30;62.95
64967;BME280;51710;38.732;-121.358;2024-03-29T03:25:26;101085.84;;;14.23;63.10
64967;BME280;51710;38.732;-121.358;2024-03-29T03:27:53;101081.00;;;14.18;63.10
64967;BME280;51710;38.732;-121.358;2024-03-29T03:30:19;101088.56;;;14.15;63.24
64967;BME280;51710;38.732;-121.358;2024-03-29T03:32:46;101084.53;;;14.11;63.23
64967;BME280;51710;38.732;-121.358;2024-03-29T03:35:12;101087.56;;;14.08;63.51
64967;BME280;51710;38.732;-121.358;2024-03-29T03:37:38;101089.91;;;14.03;63.44
64967;BME280;51710;38.732;-121.358;2024-03-29T03:40:08;101082.38;;;13.98;63.17
64967;BME280;51710;38.732;-121.358;2024-03-29T03:42:35;101079.88;;;13.97;63.05
64967;BME280;51710;38.732;-121.358;2024-03-29T03:45:01;101083.56;;;13.96;62.77
64967;BME280;51710;38.732;-121.358;2024-03-29T03:47:29;101077.91;;;13.91;61.99
64967;BME280;51710;38.732;-121.358;2024-03-29T03:49:56;101087.94;;;13.89;61.66
64967;BME280;51710;38.732;-121.358;2024-03-29T03:52:22;101084.94;;;13.84;61.29
64967;BME280;51710;38.732;-121.358;2024-03-29T03:54:48;101086.94;;;13.82;61.27
64967;BME280;51710;38.732;-121.358;2024-03-29T03:57:14;101076.56;;;13.79;61.34
64967;BME280;51710;38.732;-121.358;2024-03-29T03:59:41;101077.38;;;13.79;61.54
64967;BME280;51710;38.732;-121.358;2024-03-29T04:02:07;101076.22;;;13.82;62.56
64967;BME280;51710;38.732;-121.358;2024-03-29T04:04:33;101074.41;;;13.82;63.06
64967;BME280;51710;38.732;-121.358;2024-03-29T04:07:00;101072.53;;;13.83;63.38
64967;BME280;51710;38.732;-121.358;2024-03-29T04:09:26;101069.72;;;13.84;63.55
64967;BME280;51710;38.732;-121.358;2024-03-29T04:11:52;101074.06;;;13.85;64.08
64967;BME280;51710;38.732;-121.358;2024-03-29T04:14:18;101072.22;;;13.86;63.51
64967;BME280;51710;38.732;-121.358;2024-03-29T04:16:46;101075.06;;;13.84;63.58
64967;BME280;51710;38.732;-121.358;2024-03-29T04:19:12;101070.03;;;13.81;63.19
64967;BME280;51710;38.732;-121.358;2024-03-29T04:21:39;101072.53;;;13.83;63.14
64967;BME280;51710;38.732;-121.358;2024-03-29T04:24:05;101066.69;;;13.79;62.71
64967;BME280;51710;38.732;-121.358;2024-03-29T04:26:34;101071.06;;;13.80;63.14
64967;BME280;51710;38.732;-121.358;2024-03-29T04:29:00;101064.19;;;13.78;63.12
64967;BME280;51710;38.732;-121.358;2024-03-29T04:31:27;101064.53;;;13.75;63.30
64967;BME280;51710;38.732;-121.358;2024-03-29T04:33:53;101071.53;;;13.76;63.29
64967;BME280;51710;38.732;-121.358;2024-03-29T04:36:19;101072.56;;;13.75;63.44
64967;BME280;51710;38.732;-121.358;2024-03-29T04:38:45;101074.56;;;13.73;63.48
64967;BME280;51710;38.732;-121.358;2024-03-29T04:41:13;101071.72;;;13.66;63.71
64967;BME280;51710;38.732;-121.358;2024-03-29T04:43:40;101069.88;;;13.58;63.93
64967;BME280;51710;38.732;-121.358;2024-03-29T04:46:11;101073.56;;;13.49;63.72
64967;BME280;51710;38.732;-121.358;2024-03-29T04:48:39;101074.25;;;13.43;63.73
64967;BME280;51710;38.732;-121.358;2024-03-29T04:51:07;101073.06;;;13.38;63.82
64967;BME280;51710;38.732;-121.358;2024-03-29T04:53:35;101073.88;;;13.30;63.97
64967;BME280;51710;38.732;-121.358;2024-03-29T04:56:03;101069.06;;;13.26;64.11
64967;BME280;51710;38.732;-121.358;2024-03-29T04:58:29;101074.06;;;13.21;64.16
64967;BME280;51710;38.732;-121.358;2024-03-29T05:00:55;101067.19;;;13.18;64.56
64967;BME280;51710;38.732;-121.358;2024-03-29T05:03:23;101069.88;;;13.18;64.80
64967;BME280;51710;38.732;-121.358;2024-03-29T05:05:52;101066.03;;;13.21;65.21
64967;BME280;51710;38.732;-121.358;2024-03-29T05:08:20;101072.75;;;13.25;64.95
64967;BME280;51710;38.732;-121.358;2024-03-29T05:10:49;101074.41;;;13.26;64.90
64967;BME280;51710;38.732;-121.358;2024-03-29T05:13:19;101074.56;;;13.24;64.82
64967;BME280;51710;38.732;-121.358;2024-03-29T05:15:48;101064.84;;;13.23;65.14
64967;BME280;51710;38.732;-121.358;2024-03-29T05:18:14;101075.56;;;13.23;65.51
64967;BME280;51710;38.732;-121.358;2024-03-29T05:20:41;101068.53;;;13.22;65.20
64967;BME280;51710;38.732;-121.358;2024-03-29T05:23:13;101065.19;;;13.20;65.14
64967;BME280;51710;38.732;-121.358;2024-03-29T05:25:40;101073.22;;;13.20;64.96
64967;BME280;51710;38.732;-121.358;2024-03-29T05:28:08;101060.19;;;13.25;65.20
64967;BME280;51710;38.732;-121.358;2024-03-29T05:30:34;101055.84;;;13.32;64.89
64967;BME280;51710;38.732;-121.358;2024-03-29T05:33:03;101054.69;;;13.35;64.81
64967;BME280;51710;38.732;-121.358;2024-03-29T05:35:30;101052.34;;;13.40;64.52
64967;BME280;51710;38.732;-121.358;2024-03-29T05:37:56;101049.31;;;13.43;64.27
64967;BME280;51710;38.732;-121.358;2024-03-29T05:40:24;101049.66;;;13.40;63.65
64967;BME280;51710;38.732;-121.358;2024-03-29T05:42:53;101047.81;;;13.32;63.71
64967;BME280;51710;38.732;-121.358;2024-03-29T05:45:28;101043.81;;;13.28;63.69
64967;BME280;51710;38.732;-121.358;2024-03-29T05:47:55;101043.63;;;13.22;63.29
64967;BME280;51710;38.732;-121.358;2024-03-29T05:50:22;101055.47;;;13.11;63.00
64967;BME280;51710;38.732;-121.358;2024-03-29T05:52:50;101043.41;;;12.99;63.53
64967;BME280;51710;38.732;-121.358;2024-03-29T05:55:16;101041.41;;;12.93;63.38
64967;BME280;51710;38.732;-121.358;2024-03-29T05:57:44;101034.19;;;12.86;63.54
64967;BME280;51710;38.732;-121.358;2024-03-29T06:00:12;101028.69;;;12.79;63.77
64967;BME280;51710;38.732;-121.358;2024-03-29T06:02:42;101024.31;;;12.70;64.46
64967;BME280;51710;38.732;-121.358;2024-03-29T06:05:11;101030.00;;;12.67;64.94
64967;BME280;51710;38.732;-121.358;2024-03-29T06:07:37;101016.59;;;12.59;65.06
64967;BME280;51710;38.732;-121.358;2024-03-29T06:10:04;101016.91;;;12.48;65.45
64967;BME280;51710;38.732;-121.358;2024-03-29T06:12:32;101010.38;;;12.42;65.72
64967;BME280;51710;38.732;-121.358;2024-03-29T06:14:59;101021.19;;;12.33;65.14
64967;BME280;51710;38.732;-121.358;2024-03-29T06:17:43;101023.16;;;12.23;65.43
64967;BME280;51710;38.732;-121.358;2024-03-29T06:20:12;101024.09;;;12.14;65.90
64967;BME280;51710;38.732;-121.358;2024-03-29T06:22:38;101026.91;;;12.04;66.49
64967;BME280;51710;38.732;-121.358;2024-03-29T06:25:05;101017.19;;;11.95;66.71
64967;BME280;51710;38.732;-121.358;2024-03-29T06:27:32;101013.31;;;11.90;67.14
64967;BME280;51710;38.732;-121.358;2024-03-29T06:29:59;101020.97;;;11.85;67.30
64967;BME280;51710;38.732;-121.358;2024-03-29T06:32:25;101008.22;;;11.79;67.74
64967;BME280;51710;38.732;-121.358;2024-03-29T06:34:52;101003.72;;;11.71;67.81
64967;BME280;51710;38.732;-121.358;2024-03-29T06:37:18;100989.47;;;11.63;68.13
64967;BME280;51710;38.732;-121.358;2024-03-29T06:39:48;101000.06;;;11.55;68.30
64967;BME280;51710;38.732;-121.358;2024-03-29T06:42:15;100996.97;;;11.42;68.61
64967;BME280;51710;38.732;-121.358;2024-03-29T06:44:41;100998.88;;;11.31;69.08
64967;BME280;51710;38.732;-121.358;2024-03-29T06:47:08;100997.69;;;11.26;69.07
64967;BME280;51710;38.732;-121.358;2024-03-29T06:49:35;100993.13;;;11.18;69.37
64967;BME280;51710;38.732;-121.358;2024-03-29T06:52:02;100992.75;;;11.13;69.71
64967;BME280;51710;38.732;-121.358;2024-03-29T06:54:28;100993.34;;;11.07;69.91
64967;BME280;51710;38.732;-121.358;2024-03-29T06:56:55;100994.97;;;11.00;70.29
64967;BME280;51710;38.732;-121.358;2024-03-29T06:59:23;100987.13;;;10.99;70.41
64967;BME280;51710;38.732;-121.358;2024-03-29T07:01:50;100976.03;;;11.03;70.82
64967;BME280;51710;38.732;-121.358;2024-03-29T07:04:22;100975.91;;;11.13;70.56
64967;BME280;51710;38.732;-121.358;2024-03-29T07:06:49;100970.34;;;11.24;70.13
64967;BME280;51710;38.732;-121.358;2024-03-29T07:09:20;100965.59;;;11.35;70.47
64967;BME280;51710;38.732;-121.358;2024-03-29T07:11:47;100968.63;;;11.41;70.02
64967;BME280;51710;38.732;-121.358;2024-03-29T07:14:18;100960.56;;;11.32;69.93
64967;BME280;51710;38.732;-121.358;2024-03-29T07:16:45;100956.19;;;11.23;69.61
64967;BME280;51710;38.732;-121.358;2024-03-29T07:19:12;100946.44;;;11.14;69.86
64967;BME280;51710;38.732;-121.358;2024-03-29T07:21:40;100947.25;;;11.07;70.19
64967;BME280;51710;38.732;-121.358;2024-03-29T07:24:06;100942.34;;;11.02;69.99
64967;BME280;51710;38.732;-121.358;2024-03-29T07:26:33;100942.19;;;11.04;70.87
64967;BME280;51710;38.732;-121.358;2024-03-29T07:28:59;100943.41;;;11.09;71.39
64967;BME280;51710;38.732;-121.358;2024-03-29T07:31:25;100942.28;;;11.12;71.22
64967;BME280;51710;38.732;-121.358;2024-03-29T07:33:52;100930.44;;;11.14;70.92
64967;BME280;51710;38.732;-121.358;2024-03-29T07:36:18;100933.63;;;11.18;71.34
64967;BME280;51710;38.732;-121.358;2024-03-29T07:38:44;100933.19;;;11.22;71.25
64967;BME280;51710;38.732;-121.358;2024-03-29T07:41:10;100930.53;;;11.22;71.28
64967;BME280;51710;38.732;-121.358;2024-03-29T07:43:39;100924.81;;;11.17;71.21
64967;BME280;51710;38.732;-121.358;2024-03-29T07:46:06;100929.47;;;11.15;71.33
64967;BME280;51710;38.732;-121.358;2024-03-29T07:48:34;100922.28;;;11.16;71.76
64967;BME280;51710;38.732;-121.358;2024-03-29T07:51:02;100921.47;;;11.15;71.51
64967;BME280;51710;38.732;-121.358;2024-03-29T07:53:28;100926.81;;;11.15;71.59
64967;BME280;51710;38.732;-121.358;2024-03-29T07:55:55;100915.78;;;11.10;71.30
64967;BME280;51710;38.732;-121.358;2024-03-29T07:58:21;100918.84;;;10.98;71.25
64967;BME280;51710;38.732;-121.358;2024-03-29T08:00:48;100913.75;;;10.87;71.84
64967;BME280;51710;38.732;-121.358;2024-03-29T08:03:15;100915.03;;;10.83;72.26
64967;BME280;51710;38.732;-121.358;2024-03-29T08:05:42;100909.72;;;10.83;72.63
64967;BME280;51710;38.732;-121.358;2024-03-29T08:08:08;100908.59;;;10.85;72.78
64967;BME280;51710;38.732;-121.358;2024-03-29T08:10:34;100911.94;;;10.87;72.79
64967;BME280;51710;38.732;-121.358;2024-03-29T08:13:01;100909.78;;;10.91;73.35
64967;BME280;51710;38.732;-121.358;2024-03-29T08:15:27;100915.50;;;10.96;72.87
64967;BME280;51710;38.732;-121.358;2024-03-29T08:17:53;100909.00;;;10.98;72.54
64967;BME280;51710;38.732;-121.358;2024-03-29T08:20:19;100908.03;;;10.99;72.38
64967;BME280;51710;38.732;-121.358;2024-03-29T08:22:46;100905.97;;;10.93;72.51
64967;BME280;51710;38.732;-121.358;2024-03-29T08:25:12;100916.94;;;10.90;72.36
64967;BME280;51710;38.732;-121.358;2024-03-29T08:27:38;100912.38;;;10.83;72.65
64967;BME280;51710;38.732;-121.358;2024-03-29T08:30:05;100906.69;;;10.78;72.96
64967;BME280;51710;38.732;-121.358;2024-03-29T08:32:32;100895.81;;;10.71;72.71
64967;BME280;51710;38.732;-121.358;2024-03-29T08:34:58;100903.59;;;10.65;73.22
64967;BME280;51710;38.732;-121.358;2024-03-29T08:37:24;100899.00;;;10.57;73.70
64967;BME280;51710;38.732;-121.358;2024-03-29T08:39:51;100894.00;;;10.54;73.42
64967;BME280;51710;38.732;-121.358;2024-03-29T08:42:17;100902.97;;;10.53;73.86
64967;BME280;51710;38.732;-121.358;2024-03-29T08:44:43;100894.16;;;10.53;74.00
64967;BME280;51710;38.732;-121.358;2024-03-29T08:47:09;100905.63;;;10.53;74.21
64967;BME280;51710;38.732;-121.358;2024-03-29T08:49:36;100906.94;;;10.49;73.88
64967;BME280;51710;38.732;-121.358;2024-03-29T08:52:02;100910.50;;;10.40;74.43
64967;BME280;51710;38.732;-121.358;2024-03-29T08:54:31;100906.78;;;10.33;74.03
64967;BME280;51710;38.732;-121.358;2024-03-29T08:56:57;100906.28;;;10.20;73.91
64967;BME280;51710;38.732;-121.358;2024-03-29T08:59:25;100910.25;;;10.16;74.70
64967;BME280;51710;38.732;-121.358;2024-03-29T09:01:51;100899.63;;;10.16;74.57
64967;BME280;51710;38.732;-121.358;2024-03-29T09:04:18;100894.97;;;10.18;74.96
64967;BME280;51710;38.732;-121.358;2024-03-29T09:06:45;100891.31;;;10.19;75.10
64967;BME280;51710;38.732;-121.358;2024-03-29T09:09:11;100896.66;;;10.19;75.36
64967;BME280;51710;38.732;-121.358;2024-03-29T09:11:39;100900.31;;;10.18;75.31
64967;BME280;51710;38.732;-121.358;2024-03-29T09:14:05;100894.28;;;10.16;75.45
64967;BME280;51710;38.732;-121.358;2024-03-29T09:16:35;100897.53;;;10.10;75.36
64967;BME280;51710;38.732;-121.358;2024-03-29T09:19:01;100894.03;;;10.09;75.50
64967;BME280;51710;38.732;-121.358;2024-03-29T09:21:28;100882.28;;;10.12;75.72
64967;BME280;51710;38.732;-121.358;2024-03-29T09:23:54;100885.31;;;10.17;75.93
64967;BME280;51710;38.732;-121.358;2024-03-29T09:26:20;100884.19;;;10.19;75.99
64967;BME280;51710;38.732;-121.358;2024-03-29T09:28:47;100883.19;;;10.20;75.65
64967;BME280;51710;38.732;-121.358;2024-03-29T09:31:13;100879.03;;;10.18;75.84
64967;BME280;51710;38.732;-121.358;2024-03-29T09:33:39;100876.25;;;10.10;76.03
64967;BME280;51710;38.732;-121.358;2024-03-29T09:36:06;100872.78;;;10.00;76.17
64967;BME280;51710;38.732;-121.358;2024-03-29T09:38:32;100864.59;;;9.93;76.34
64967;BME280;51710;38.732;-121.358;2024-03-29T09:41:13;100866.56;;;9.91;76.38
64967;BME280;51710;38.732;-121.358;2024-03-29T09:43:44;100865.72;;;9.91;76.97
64967;BME280;51710;38.732;-121.358;2024-03-29T09:46:14;100861.22;;;9.91;77.04
64967;BME280;51710;38.732;-121.358;2024-03-29T09:48:42;100862.75;;;9.94;76.79
64967;BME280;51710;38.732;-121.358;2024-03-29T09:51:09;100861.94;;;9.93;77.30
64967;BME280;51710;38.732;-121.358;2024-03-29T09:53:37;100858.25;;;9.94;77.10
64967;BME280;51710;38.732;-121.358;2024-03-29T09:56:04;100847.47;;;9.96;76.84
64967;BME280;51710;38.732;-121.358;2024-03-29T09:58:31;100852.94;;;9.94;77.13
64967;BME280;51710;38.732;-121.358;2024-03-29T10:00:58;100848.78;;;9.92;77.43
64967;BME280;51710;38.732;-121.358;2024-03-29T10:03:27;100843.47;;;9.92;77.64
64967;BME280;51710;38.732;-121.358;2024-03-29T10:06:01;100845.13;;;9.93;77.15
64967;BME280;51710;38.732;-121.358;2024-03-29T10:08:30;100824.38;;;9.96;77.44
64967;BME280;51710;38.732;-121.358;2024-03-29T10:10:57;100830.22;;;10.00;77.79
64967;BME280;51710;38.732;-121.358;2024-03-29T10:13:24;100827.56;;;10.00;77.66
64967;BME280;51710;38.732;-121.358;2024-03-29T10:15:54;100830.22;;;10.00;77.74
64967;BME280;51710;38.732;-121.358;2024-03-29T10:18:27;100825.75;;;10.00;77.60
64967;BME280;51710;38.732;-121.358;2024-03-29T10:21:05;100817.91;;;9.99;77.27
64967;BME280;51710;38.732;-121.358;2024-03-29T10:23:34;100821.56;;;9.98;77.74
64967;BME280;51710;38.732;-121.358;2024-03-29T10:26:03;100809.91;;;9.99;77.93
64967;BME280;51710;38.732;-121.358;2024-03-29T10:28:34;100814.13;;;10.01;78.37
64967;BME280;51710;38.732;-121.358;2024-03-29T10:31:03;100815.66;;;10.04;78.02
64967;BME280;51710;38.732;-121.358;2024-03-29T10:33:30;100805.81;;;10.04;77.91
64967;BME280;51710;38.732;-121.358;2024-03-29T10:35:58;100812.16;;;10.03;77.98
64967;BME280;51710;38.732;-121.358;2024-03-29T10:38:27;100808.63;;;10.03;77.69
64967;BME280;51710;38.732;-121.358;2024-03-29T10:40:54;100806.97;;;10.02;78.00
64967;BME280;51710;38.732;-121.358;2024-03-29T10:43:21;100804.31;;;10.02;78.01
64967;BME280;51710;38.732;-121.358;2024-03-29T10:45:48;100796.34;;;10.02;78.07
64967;BME280;51710;38.732;-121.358;2024-03-29T10:48:21;100798.00;;;10.03;77.91
64967;BME280;51710;38.732;-121.358;2024-03-29T10:50:48;100799.69;;;10.04;78.36
64967;BME280;51710;38.732;-121.358;2024-03-29T10:53:17;100786.91;;;10.07;78.56
64967;BME280;51710;38.732;-121.358;2024-03-29T10:55:43;100782.16;;;10.11;78.36
64967;BME280;51710;38.732;-121.358;2024-03-29T10:58:11;100774.19;;;10.11;78.21
64967;BME280;51710;38.732;-121.358;2024-03-29T11:00:39;100760.88;;;10.11;78.38
64967;BME280;51710;38.732;-121.358;2024-03-29T11:03:20;100773.34;;;10.10;78.36
64967;BME280;51710;38.732;-121.358;2024-03-29T11:05:57;100771.53;;;10.11;78.14
64967;BME280;51710;38.732;-121.358;2024-03-29T11:08:33;100766.31;;;10.09;78.15
64967;BME280;51710;38.732;-121.358;2024-03-29T11:11:12;100768.41;;;10.06;77.97
64967;BME280;51710;38.732;-121.358;2024-03-29T11:13:52;100755.44;;;10.03;77.96
64967;BME280;51710;38.732;-121.358;2024-03-29T11:16:19;100750.63;;;10.06;78.25
64967;BME280;51710;38.732;-121.358;2024-03-29T11:18:46;100742.50;;;10.08;78.45
64967;BME280;51710;38.732;-121.358;2024-03-29T11:21:14;100739.84;;;10.08;78.34
64967;BME280;51710;38.732;-121.358;2024-03-29T11:23:52;100738.91;;;10.09;78.65
64967;BME280;51710;38.732;-121.358;2024-03-29T11:26:19;100738.91;;;10.09;78.78
64967;BME280;51710;38.732;-121.358;2024-03-29T11:28:50;100734.91;;;10.13;78.77
64967;BME280;51710;38.732;-121.358;2024-03-29T11:31:17;100734.63;;;10.16;78.82
64967;BME280;51710;38.732;-121.358;2024-03-29T11:33:45;100720.34;;;10.17;78.47
64967;BME280;51710;38.732;-121.358;2024-03-29T11:36:15;100725.66;;;10.17;78.63
64967;BME280;51710;38.732;-121.358;2024-03-29T11:38:48;100724.00;;;10.16;78.95
64967;BME280;51710;38.732;-121.358;2024-03-29T11:41:15;100727.63;;;10.15;78.19
64967;BME280;51710;38.732;-121.358;2024-03-29T11:43:42;100727.63;;;10.15;79.00
64967;BME280;51710;38.732;-121.358;2024-03-29T11:46:11;100718.69;;;10.16;78.48
64967;BME280;51710;38.732;-121.358;2024-03-29T11:48:38;100718.34;;;10.19;78.63
64967;BME280;51710;38.732;-121.358;2024-03-29T11:51:12;100724.53;;;10.19;78.38
64967;BME280;51710;38.732;-121.358;2024-03-29T11:53:41;100720.00;;;10.20;78.86
64967;BME280;51710;38.732;-121.358;2024-03-29T11:56:08;100719.19;;;10.19;78.95
64967;BME280;51710;38.732;-121.358;2024-03-29T11:58:37;100718.19;;;10.20;78.62
64967;BME280;51710;38.732;-121.358;2024-03-29T12:01:05;100713.41;;;10.24;78.93
64967;BME280;51710;38.732;-121.358;2024-03-29T12:03:32;100713.25;;;10.26;78.99
64967;BME280;51710;38.732;-121.358;2024-03-29T12:06:00;100707.63;;;10.29;79.11
64967;BME280;51710;38.732;-121.358;2024-03-29T12:08:34;100709.28;;;10.30;78.60
64967;BME280;51710;38.732;-121.358;2024-03-29T12:11:02;100696.81;;;10.30;78.91
64967;BME280;51710;38.732;-121.358;2024-03-29T12:13:29;100700.28;;;10.31;79.13
64967;BME280;51710;38.732;-121.358;2024-03-29T12:15:56;100688.69;;;10.32;78.73
64967;BME280;51710;38.732;-121.358;2024-03-29T12:18:24;100686.19;;;10.30;78.51
64967;BME280;51710;38.732;-121.358;2024-03-29T12:20:51;100680.00;;;10.30;78.93
64967;BME280;51710;38.732;-121.358;2024-03-29T12:23:20;100679.84;;;10.31;78.81